Time;durP1;ratioP1;P1;durP2;ratioP2;P2;SDS_P1;SDS_P2;PMS_P1;PMS_P2;Temp;Humidity;BMP_temperature;BMP_pressure;BME280_temperature;BME280_humidity;BME280_pressure;Samples;Min_cycle;Max_cycle;Signal;HPM_P1;HPM_P2
2024/01/24 00:01:37;;;;;;;67.00;34.40;;;;;;;-2.07;82.68;96772.96;110590;1274;22255;-79
2024/01/24 00:04:06;;;;;;;62.80;33.60;;;;;;;-2.07;82.38;96775.41;110491;1274;22221;-79
2024/01/24 00:06:37;;;;;;;56.90;31.60;;;;;;;-2.08;82.43;96764.33;110510;1275;22153;-79
2024/01/24 00:09:05;;;;;;;60.80;32.30;;;;;;;-2.08;82.40;96761.58;110540;1274;22169;-78
2024/01/24 00:11:33;;;;;;;58.70;30.90;;;;;;;-2.08;82.36;96762.94;110498;1274;22288;-79
2024/01/24 00:14:01;;;;;;;59.50;32.20;;;;;;;-2.09;82.21;96761.48;110545;1274;22138;-79
2024/01/24 00:16:30;;;;;;;56.20;29.80;;;;;;;-2.08;82.12;96765.34;110515;1274;22204;-79
2024/01/24 00:18:58;;;;;;;55.80;28.40;;;;;;;-2.06;81.99;96763.22;110508;1272;22134;-79
2024/01/24 00:21:26;;;;;;;49.20;24.90;;;;;;;-2.05;81.98;96762.55;110540;1271;22202;-79
2024/01/24 00:23:54;;;;;;;51.70;26.60;;;;;;;-2.08;81.76;96765.90;110506;1274;22177;-79
2024/01/24 00:26:22;;;;;;;53.40;25.50;;;;;;;-2.08;82.14;96765.70;110511;1274;22127;-79
2024/01/24 00:28:51;;;;;;;54.70;26.50;;;;;;;-2.07;82.14;96768.98;110435;1275;22186;-79
2024/01/24 00:31:19;;;;;;;43.90;25.20;;;;;;;-2.06;82.30;96765.45;110487;1274;22147;-79
2024/01/24 00:33:48;;;;;;;50.40;25.60;;;;;;;-2.11;82.78;96762.08;110429;1274;22121;-78
2024/01/24 00:36:16;;;;;;;45.00;24.80;;;;;;;-2.14;82.75;96764.54;110532;1274;22872;-79
2024/01/24 00:38:45;;;;;;;53.20;29.80;;;;;;;-2.16;82.66;96764.29;110481;1274;22133;-79
2024/01/24 00:41:13;;;;;;;45.90;24.20;;;;;;;-2.14;82.62;96756.59;110487;1274;22274;-79
2024/01/24 00:43:42;;;;;;;48.70;26.10;;;;;;;-2.21;83.06;96753.02;110446;1274;22108;-79
2024/01/24 00:46:10;;;;;;;65.20;35.50;;;;;;;-2.23;83.11;96757.55;110580;1274;22222;-79
2024/01/24 00:48:38;;;;;;;66.80;36.20;;;;;;;-2.19;82.69;96759.14;110500;1272;22158;-79
2024/01/24 00:51:06;;;;;;;69.70;35.60;;;;;;;-2.14;82.90;96762.80;110602;1274;22259;-79
2024/01/24 00:53:37;;;;;;;52.80;30.80;;;;;;;-2.12;83.28;96760.85;110510;1274;22170;-79
2024/01/24 00:56:06;;;;;;;65.00;34.70;;;;;;;-2.04;83.47;96759.85;110518;1274;22352;-79
2024/01/24 00:58:34;;;;;;;58.70;31.30;;;;;;;-1.95;83.35;96756.51;110498;1274;22107;-79
2024/01/24 01:01:02;;;;;;;72.80;38.70;;;;;;;-1.90;82.89;96753.28;110483;1274;22102;-79
2024/01/24 01:03:30;;;;;;;75.80;40.60;;;;;;;-1.86;82.92;96749.16;110481;1274;22752;-78
2024/01/24 01:05:59;;;;;;;76.90;39.90;;;;;;;-1.87;82.67;96741.51;110504;1274;22129;-79
2024/01/24 01:08:27;;;;;;;63.80;33.50;;;;;;;-1.82;82.83;96733.82;110506;1274;22121;-79
2024/01/24 01:10:55;;;;;;;70.30;35.40;;;;;;;-1.82;82.33;96735.39;110486;1275;23124;-79
2024/01/24 01:13:24;;;;;;;61.40;31.30;;;;;;;-1.81;82.79;96735.27;110516;1274;22138;-79
2024/01/24 01:15:52;;;;;;;62.20;32.10;;;;;;;-1.75;82.93;96733.13;110492;1274;22170;-79
2024/01/24 01:18:20;;;;;;;58.80;31.40;;;;;;;-1.71;82.55;96733.10;110502;1274;22124;-79
2024/01/24 01:20:48;;;;;;;62.00;30.80;;;;;;;-1.70;82.31;96735.42;110522;1272;22188;-79
2024/01/24 01:23:16;;;;;;;60.30;28.60;;;;;;;-1.75;81.92;96735.20;110532;1274;22094;-79
2024/01/24 01:25:45;;;;;;;52.10;28.30;;;;;;;-1.82;81.46;96734.87;110541;1274;22124;-79
2024/01/24 01:28:13;;;;;;;51.70;27.50;;;;;;;-1.91;81.29;96747.22;110522;1274;22428;-79
2024/01/24 01:30:41;;;;;;;49.20;26.90;;;;;;;-2.02;81.13;96732.88;110522;1274;22139;-79
2024/01/24 01:33:09;;;;;;;51.20;25.90;;;;;;;-2.14;81.38;96731.42;110524;1271;22118;-79
2024/01/24 01:35:38;;;;;;;46.50;25.80;;;;;;;-2.28;80.86;96729.57;110497;1274;22108;-79
2024/01/24 01:38:06;;;;;;;48.80;25.30;;;;;;;-2.47;80.80;96724.00;110539;1274;22125;-79
2024/01/24 01:40:34;;;;;;;52.70;27.30;;;;;;;-2.65;81.80;96721.89;110536;1274;22197;-79
2024/01/24 01:43:09;;;;;;;52.50;25.90;;;;;;;-2.75;81.81;96717.09;110533;1274;22108;-79
2024/01/24 01:45:37;;;;;;;52.00;25.60;;;;;;;-2.88;81.18;96716.60;110418;1274;22130;-80
2024/01/24 01:48:07;;;;;;;40.80;21.60;;;;;;;-3.02;81.39;96722.94;110499;1263;22111;-79
2024/01/24 01:50:37;;;;;;;53.90;24.70;;;;;;;-3.22;80.90;96725.69;110542;1263;22155;-79
2024/01/24 01:53:07;;;;;;;45.30;22.60;;;;;;;-3.35;81.38;96718.14;110612;1274;22121;-79
2024/01/24 01:55:36;;;;;;;45.40;22.90;;;;;;;-3.53;81.47;96714.77;110515;1274;22141;-79
2024/01/24 01:58:04;;;;;;;45.60;22.40;;;;;;;-3.63;81.86;96723.52;110500;1274;22204;-79
2024/01/24 02:00:33;;;;;;;49.70;24.40;;;;;;;-3.68;82.10;96716.67;110529;1274;22123;-80
2024/01/24 02:03:01;;;;;;;47.20;25.00;;;;;;;-3.71;82.46;96707.77;110580;1274;22190;-79
2024/01/24 02:05:30;;;;;;;47.60;22.30;;;;;;;-3.71;82.42;96707.24;110513;1274;22859;-79
2024/01/24 02:07:58;;;;;;;43.00;21.40;;;;;;;-3.73;82.35;96703.89;110453;1275;22945;-79
2024/01/24 02:10:26;;;;;;;41.80;20.00;;;;;;;-3.76;82.40;96705.45;110511;1274;22519;-79
2024/01/24 02:12:54;;;;;;;36.20;18.40;;;;;;;-3.82;82.11;96700.48;110516;1274;22603;-80
2024/01/24 02:15:23;;;;;;;32.40;16.40;;;;;;;-3.94;81.86;96699.84;110526;1274;22408;-79
2024/01/24 02:17:51;;;;;;;31.70;15.70;;;;;;;-3.99;82.07;96692.68;110523;1274;22916;-79
2024/01/24 02:20:20;;;;;;;32.00;16.50;;;;;;;-4.05;82.18;96695.10;110516;1274;22592;-80
2024/01/24 02:22:48;;;;;;;37.10;16.90;;;;;;;-4.12;82.38;96690.06;110498;1274;22553;-80
2024/01/24 02:25:16;;;;;;;34.20;18.10;;;;;;;-4.19;82.78;96685.59;110536;1274;22108;-79
2024/01/24 02:27:44;;;;;;;37.60;19.70;;;;;;;-4.27;83.23;96692.34;110508;1274;22121;-79
2024/01/24 02:30:15;;;;;;;33.20;15.80;;;;;;;-4.37;82.79;96695.71;110516;1274;22183;-80
2024/01/24 02:32:43;;;;;;;34.50;17.20;;;;;;;-4.46;83.20;96691.10;110403;1274;22285;-79
2024/01/24 02:35:12;;;;;;;34.10;17.10;;;;;;;-4.51;83.32;96689.77;110435;1274;22230;-79
2024/01/24 02:37:40;;;;;;;37.50;16.40;;;;;;;-4.52;83.45;96697.45;110541;1274;22663;-80
2024/01/24 02:40:08;;;;;;;27.70;12.80;;;;;;;-4.53;83.25;96697.44;110489;1274;22357;-80
2024/01/24 02:42:37;;;;;;;30.10;14.00;;;;;;;-4.53;83.12;96687.13;110545;1274;22348;-80
2024/01/24 02:45:06;;;;;;;29.30;13.10;;;;;;;-4.55;83.09;96687.01;110531;1274;22115;-80
2024/01/24 02:47:34;;;;;;;32.50;14.80;;;;;;;-4.62;82.96;96692.43;110535;1274;22134;-80
2024/01/24 02:50:04;;;;;;;39.60;20.20;;;;;;;-4.74;82.98;96696.39;110536;1274;22217;-80
2024/01/24 02:52:32;;;;;;;38.00;18.40;;;;;;;-4.82;82.83;96691.29;110534;1274;22686;-80
2024/01/24 02:55:00;;;;;;;33.40;15.70;;;;;;;-4.86;82.75;96689.85;110514;1274;22940;-80
2024/01/24 02:57:29;;;;;;;34.30;15.40;;;;;;;-4.83;83.18;96692.64;110399;1274;22868;-80
2024/01/24 02:59:57;;;;;;;35.70;17.50;;;;;;;-4.78;83.80;96699.23;110543;1274;22150;-79
2024/01/24 03:02:26;;;;;;;37.00;18.20;;;;;;;-4.80;83.75;96702.04;110509;1274;22987;-80
2024/01/24 03:04:54;;;;;;;34.00;17.10;;;;;;;-4.80;83.63;96702.92;110519;1274;22835;-79
2024/01/24 03:07:23;;;;;;;36.70;17.20;;;;;;;-4.81;83.73;96699.73;110540;1275;23097;-79
2024/01/24 03:09:51;;;;;;;33.70;15.70;;;;;;;-4.82;83.63;96690.64;110510;1274;22265;-80
2024/01/24 03:12:19;;;;;;;29.30;15.10;;;;;;;-4.75;83.86;96690.11;110515;1274;22164;-80
2024/01/24 03:14:47;;;;;;;32.80;15.20;;;;;;;-4.67;84.18;96696.39;110521;1274;22895;-80
2024/01/24 03:17:15;;;;;;;37.30;16.50;;;;;;;-4.58;84.19;96701.77;110543;1274;22271;-80
2024/01/24 03:19:44;;;;;;;32.10;14.10;;;;;;;-4.58;83.08;96700.56;110537;1274;22146;-79
2024/01/24 03:22:13;;;;;;;28.50;14.00;;;;;;;-4.63;83.03;96703.70;110532;1274;22941;-80
2024/01/24 03:24:41;;;;;;;39.90;19.30;;;;;;;-4.82;82.28;96707.27;110515;1274;22117;-80
2024/01/24 03:27:09;;;;;;;35.60;17.70;;;;;;;-4.94;82.43;96712.90;110526;1274;23105;-80
2024/01/24 03:29:37;;;;;;;44.10;21.20;;;;;;;-5.01;82.63;96712.86;110542;1274;22127;-80
2024/01/24 03:32:06;;;;;;;24.30;12.20;;;;;;;-4.97;83.02;96710.33;110552;1274;22923;-80
2024/01/24 03:34:34;;;;;;;31.60;15.50;;;;;;;-4.90;83.41;96707.97;110511;1274;22559;-80
2024/01/24 03:37:03;;;;;;;24.20;12.70;;;;;;;-4.84;83.47;96713.48;110458;1274;22141;-80
2024/01/24 03:39:31;;;;;;;27.30;12.30;;;;;;;-4.76;83.85;96719.23;110531;1259;22119;-80
2024/01/24 03:41:59;;;;;;;23.90;12.70;;;;;;;-4.77;82.99;96721.64;110495;1274;22266;-80
2024/01/24 03:44:27;;;;;;;23.90;11.60;;;;;;;-4.92;81.82;96715.25;110559;1274;22107;-80
2024/01/24 03:46:55;;;;;;;26.10;13.50;;;;;;;-5.05;82.09;96724.45;110511;1274;22345;-80
2024/01/24 03:49:23;;;;;;;25.90;12.60;;;;;;;-5.05;82.84;96721.22;110530;1274;22939;-79
2024/01/24 03:51:53;;;;;;;22.40;12.50;;;;;;;-5.10;82.48;96725.33;110543;1274;22127;-80
2024/01/24 03:54:22;;;;;;;26.20;12.10;;;;;;;-5.22;82.13;96719.64;110550;1274;22185;-80
2024/01/24 03:56:50;;;;;;;25.20;11.80;;;;;;;-5.32;82.25;96710.15;110521;1274;22178;-80
2024/01/24 03:59:18;;;;;;;27.80;12.20;;;;;;;-5.34;82.64;96708.15;110549;1274;22272;-80
2024/01/24 04:01:46;;;;;;;37.70;15.80;;;;;;;-5.39;82.53;96702.16;110523;1274;22201;-80
2024/01/24 04:04:14;;;;;;;30.30;13.40;;;;;;;-5.53;82.22;96699.80;110529;1275;22180;-79
2024/01/24 04:06:43;;;;;;;34.00;14.30;;;;;;;-5.59;82.45;96706.77;110572;1274;22193;-80
2024/01/24 04:09:11;;;;;;;25.70;12.30;;;;;;;-5.65;83.46;96709.34;110606;1274;22546;-79
2024/01/24 04:11:40;;;;;;;30.40;14.00;;;;;;;-5.75;83.74;96712.86;110542;1272;22138;-79
2024/01/24 04:14:09;;;;;;;24.60;12.30;;;;;;;-5.81;83.82;96707.33;110582;1274;22103;-80
2024/01/24 04:16:39;;;;;;;28.20;13.10;;;;;;;-5.87;83.83;96703.89;110574;1274;22221;-79
2024/01/24 04:19:08;;;;;;;79.70;33.90;;;;;;;-5.96;84.25;96696.83;110546;1274;22149;-79
2024/01/24 04:21:45;;;;;;;56.40;23.30;;;;;;;-6.05;84.58;96695.96;110554;1274;22124;-79
2024/01/24 04:24:13;;;;;;;34.90;15.40;;;;;;;-6.10;84.47;96690.85;110506;1274;22229;-79
2024/01/24 04:26:42;;;;;;;27.10;13.60;;;;;;;-6.08;84.45;96697.13;110507;1274;22940;-79
2024/01/24 04:29:10;;;;;;;31.00;13.80;;;;;;;-6.06;84.27;96695.20;110544;1274;22173;-80
2024/01/24 04:31:41;;;;;;;27.10;13.60;;;;;;;-6.06;84.11;96692.62;110541;1274;22878;-80
2024/01/24 04:34:09;;;;;;;24.40;13.00;;;;;;;-6.04;84.17;96690.22;110498;1274;22146;-80
2024/01/24 04:36:38;;;;;;;31.70;13.80;;;;;;;-6.02;83.90;96688.22;110538;1274;22128;-80
2024/01/24 04:39:06;;;;;;;33.80;14.50;;;;;;;-6.01;83.77;96697.91;110603;1275;22138;-79
2024/01/24 04:41:34;;;;;;;76.50;32.00;;;;;;;-5.99;83.79;96711.55;110534;1275;22892;-79
2024/01/24 04:44:07;;;;;;;51.50;22.10;;;;;;;-6.00;83.85;96726.24;110531;1274;22300;-79
2024/01/24 04:46:35;;;;;;;32.50;14.60;;;;;;;-6.04;83.45;96734.90;110513;1274;22966;-79
2024/01/24 04:49:03;;;;;;;34.00;14.90;;;;;;;-6.07;83.22;96729.93;110587;1274;22133;-79
2024/01/24 04:51:31;;;;;;;23.50;12.20;;;;;;;-6.05;83.51;96720.28;110525;1274;22115;-79
2024/01/24 04:54:00;;;;;;;22.90;11.40;;;;;;;-5.98;84.06;96717.48;110516;1274;22129;-79
2024/01/24 04:56:29;;;;;;;18.00;8.60;;;;;;;-5.97;83.47;96711.54;110583;1274;22139;-80
2024/01/24 04:58:57;;;;;;;29.00;11.70;;;;;;;-6.00;83.33;96711.18;110512;1274;22193;-79
2024/01/24 05:01:25;;;;;;;22.60;12.20;;;;;;;-5.92;84.21;96699.16;110519;1274;22132;-79
2024/01/24 05:03:53;;;;;;;21.30;10.30;;;;;;;-5.84;83.80;96690.55;110540;1274;22106;-79
2024/01/24 05:06:21;;;;;;;83.00;39.20;;;;;;;-5.91;82.92;96688.25;110532;1274;22934;-79
2024/01/24 05:08:51;;;;;;;98.40;42.90;;;;;;;-5.94;83.11;96694.59;110543;1274;22215;-79
2024/01/24 05:11:19;;;;;;;74.00;31.60;;;;;;;-5.87;83.48;96691.89;110519;1274;22109;-79
2024/01/24 05:13:50;;;;;;;34.60;15.70;;;;;;;-5.73;83.84;96685.38;110515;1274;22216;-79
2024/01/24 05:16:18;;;;;;;23.40;11.60;;;;;;;-5.58;83.83;96680.42;110484;1274;22407;-79
2024/01/24 05:18:46;;;;;;;74.90;33.00;;;;;;;-5.48;83.62;96678.03;110518;1274;22283;-79
2024/01/24 05:21:15;;;;;;;91.80;40.90;;;;;;;-5.40;83.14;96685.17;110620;1274;22213;-79
2024/01/24 05:23:44;;;;;;;85.30;39.60;;;;;;;-5.34;82.53;96689.27;110536;1274;22863;-79
2024/01/24 05:26:13;;;;;;;107.70;46.60;;;;;;;-5.38;81.67;96691.56;110521;1274;22934;-79
2024/01/24 05:28:41;;;;;;;34.40;17.20;;;;;;;-5.31;82.74;96696.65;110531;1274;22115;-79
2024/01/24 05:31:10;;;;;;;25.40;11.30;;;;;;;-5.15;83.45;96692.80;110543;1274;22109;-79
2024/01/24 05:33:38;;;;;;;20.40;9.90;;;;;;;-5.03;83.12;96690.42;110586;1274;22124;-78
2024/01/24 05:36:06;;;;;;;20.10;10.10;;;;;;;-5.02;82.33;96689.48;110537;1274;22899;-79
2024/01/24 05:38:35;;;;;;;18.50;8.00;;;;;;;-5.05;81.65;96695.94;110532;1274;22430;-79
2024/01/24 05:41:03;;;;;;;21.00;9.70;;;;;;;-5.11;81.58;96691.83;110594;1274;22305;-79
2024/01/24 05:43:31;;;;;;;20.80;9.70;;;;;;;-5.04;82.25;96685.90;110543;1274;22112;-79
2024/01/24 05:45:59;;;;;;;28.50;11.30;;;;;;;-4.96;82.50;96684.31;110537;1274;22205;-79
2024/01/24 05:48:27;;;;;;;18.90;9.90;;;;;;;-4.91;82.44;96684.91;110504;1274;23029;-79
2024/01/24 05:50:56;;;;;;;115.30;47.10;;;;;;;-4.86;82.33;96686.94;110502;1274;22137;-78
2024/01/24 05:53:24;;;;;;;149.00;63.60;;;;;;;-4.88;82.10;96694.22;110507;1274;22123;-79
2024/01/24 05:55:52;;;;;;;66.90;29.60;;;;;;;-4.88;81.97;96691.83;110527;1263;22176;-79
2024/01/24 05:58:20;;;;;;;24.80;12.20;;;;;;;-4.82;82.35;96696.13;110556;1274;22138;-79
2024/01/24 06:00:48;;;;;;;31.00;12.80;;;;;;;-4.72;82.33;96700.80;110516;1274;23019;-79
2024/01/24 06:03:16;;;;;;;26.50;12.80;;;;;;;-4.69;82.10;96698.02;110538;1274;22137;-79
2024/01/24 06:05:45;;;;;;;35.30;14.30;;;;;;;-4.57;82.72;96704.56;110522;1274;22285;-79
2024/01/24 06:08:13;;;;;;;60.00;27.60;;;;;;;-4.48;82.85;96705.77;110489;1274;22144;-79
2024/01/24 06:10:41;;;;;;;62.30;28.90;;;;;;;-4.43;82.30;96700.60;110534;1274;22300;-79
2024/01/24 06:13:09;;;;;;;61.30;28.30;;;;;;;-4.46;82.07;96690.23;110526;1274;22343;-79
2024/01/24 06:15:38;;;;;;;72.70;31.80;;;;;;;-4.51;83.02;96686.71;110631;1274;22172;-79
2024/01/24 06:18:06;;;;;;;105.00;45.70;;;;;;;-4.40;83.33;96687.85;110503;1274;22162;-79
2024/01/24 06:20:34;;;;;;;120.80;51.50;;;;;;;-4.29;83.01;96674.88;110511;1274;22238;-78
2024/01/24 06:23:02;;;;;;;181.80;77.30;;;;;;;-4.28;82.29;96672.33;110494;1274;22815;-79
2024/01/24 06:25:31;;;;;;;150.90;66.10;;;;;;;-4.32;81.90;96671.80;110527;1274;22284;-79
2024/01/24 06:27:59;;;;;;;104.00;47.50;;;;;;;-4.32;82.61;96675.38;110537;1274;22273;-79
2024/01/24 06:30:27;;;;;;;75.40;38.70;;;;;;;-4.32;82.69;96682.27;110523;1274;22178;-78
2024/01/24 06:32:58;;;;;;;65.50;33.10;;;;;;;-4.38;83.33;96686.40;110497;1274;22956;-79
2024/01/24 06:35:26;;;;;;;62.50;28.40;;;;;;;-4.33;84.43;96691.83;110527;1274;22196;-78
2024/01/24 06:37:55;;;;;;;47.40;24.70;;;;;;;-4.22;84.60;96682.14;110547;1274;22154;-79
2024/01/24 06:40:24;;;;;;;53.30;26.50;;;;;;;-4.20;83.80;96675.22;110582;1274;22144;-79
2024/01/24 06:42:52;;;;;;;56.90;28.40;;;;;;;-4.19;83.71;96672.54;110446;1274;22896;-79
2024/01/24 06:45:20;;;;;;;58.80;28.20;;;;;;;-4.20;84.12;96668.30;110527;1274;23128;-79
2024/01/24 06:47:49;;;;;;;61.90;29.00;;;;;;;-4.18;84.12;96673.79;110510;1274;22806;-79
2024/01/24 06:50:18;;;;;;;56.20;28.80;;;;;;;-4.23;84.77;96677.48;110541;1274;22147;-79
2024/01/24 06:52:46;;;;;;;59.40;30.10;;;;;;;-4.25;85.25;96684.02;110543;1274;22308;-78
2024/01/24 06:55:16;;;;;;;58.70;28.00;;;;;;;-4.20;85.76;96679.38;110591;1274;22288;-79
2024/01/24 06:57:46;;;;;;;56.40;27.00;;;;;;;-4.16;85.79;96677.00;110517;1274;22212;-79
2024/01/24 07:00:15;;;;;;;53.70;25.00;;;;;;;-4.16;85.96;96665.48;110620;1274;22451;-79
2024/01/24 07:02:43;;;;;;;52.10;24.80;;;;;;;-4.07;85.90;96664.40;110540;1275;22100;-79
2024/01/24 07:05:12;;;;;;;50.10;24.50;;;;;;;-4.01;85.30;96667.63;110591;1274;22945;-78
2024/01/24 07:07:40;;;;;;;149.30;57.30;;;;;;;-4.01;84.62;96674.20;110542;1274;22829;-78
2024/01/24 07:10:10;;;;;;;54.10;26.30;;;;;;;-4.05;84.29;96674.63;110476;1274;22757;-79
2024/01/24 07:12:45;;;;;;;46.10;22.10;;;;;;;-3.99;84.76;96674.96;110552;1274;22271;-78
2024/01/24 07:15:18;;;;;;;48.40;22.70;;;;;;;-3.89;84.45;96675.02;110532;1274;22806;-79
2024/01/24 07:17:47;;;;;;;43.70;22.30;;;;;;;-3.84;84.29;96666.34;110579;1274;22193;-79
2024/01/24 07:20:18;;;;;;;48.70;23.30;;;;;;;-3.67;84.88;96657.80;110630;1274;22253;-78
2024/01/24 07:22:46;;;;;;;47.30;22.90;;;;;;;-3.48;84.33;96650.52;110531;1274;22199;-78
2024/01/24 07:25:15;;;;;;;54.10;24.20;;;;;;;-3.34;84.07;96650.20;110528;1275;22910;-79
2024/01/24 07:27:44;;;;;;;47.10;23.00;;;;;;;-3.19;83.52;96642.89;110580;1274;22108;-79
2024/01/24 07:30:13;;;;;;;49.60;24.00;;;;;;;-3.08;83.12;96644.85;110549;1274;22139;-79
2024/01/24 07:32:42;;;;;;;46.60;23.50;;;;;;;-2.97;83.00;96645.02;110605;1274;22181;-78
2024/01/24 07:35:10;;;;;;;48.60;23.60;;;;;;;-2.91;82.47;96647.89;110539;1275;23107;-78
2024/01/24 07:37:39;;;;;;;47.00;22.90;;;;;;;-2.91;81.73;96647.22;110559;1274;22195;-78
2024/01/24 07:40:17;;;;;;;50.10;24.40;;;;;;;-2.95;81.16;96642.36;110585;1274;22905;-79
2024/01/24 07:42:45;;;;;;;54.30;28.40;;;;;;;-2.99;81.06;96638.39;110537;1274;23349;-78
2024/01/24 07:45:13;;;;;;;61.50;29.90;;;;;;;-2.97;81.21;96637.98;110614;1274;22838;-78
2024/01/24 07:47:42;;;;;;;54.40;25.20;;;;;;;-2.92;81.16;96637.05;110564;1274;22134;-78
2024/01/24 07:50:13;;;;;;;80.40;40.30;;;;;;;-3.00;80.65;96638.70;110532;1275;22160;-78
2024/01/24 07:52:43;;;;;;;83.50;42.40;;;;;;;-3.12;80.69;96642.05;110484;1274;22211;-78
2024/01/24 07:55:13;;;;;;;80.10;40.20;;;;;;;-3.14;81.37;96645.06;110524;1274;22185;-78
2024/01/24 07:57:44;;;;;;;65.60;33.40;;;;;;;-3.26;81.44;96638.92;110522;1274;22937;-79
2024/01/24 08:00:16;;;;;;;63.60;36.40;;;;;;;-3.34;81.91;96645.91;110568;1274;22110;-79
2024/01/24 08:02:46;;;;;;;51.00;25.20;;;;;;;-3.27;82.13;96641.10;110608;1274;22310;-78
2024/01/24 08:05:19;;;;;;;52.70;28.20;;;;;;;-3.13;82.31;96639.59;110613;1274;21762;-78
2024/01/24 08:07:47;;;;;;;54.20;26.70;;;;;;;-3.14;81.64;96639.54;110538;1274;22177;-78
2024/01/24 08:10:15;;;;;;;49.70;24.10;;;;;;;-3.11;81.58;96642.24;110528;1274;22206;-78
2024/01/24 08:12:44;;;;;;;56.90;28.10;;;;;;;-3.05;81.92;96632.26;110564;1274;22136;-78
2024/01/24 08:15:13;;;;;;;49.00;25.00;;;;;;;-2.97;81.92;96627.95;110575;1274;22334;-78
2024/01/24 08:17:42;;;;;;;51.20;24.60;;;;;;;-2.88;81.98;96630.48;110551;1274;22130;-79
2024/01/24 08:20:11;;;;;;;54.30;26.00;;;;;;;-2.80;81.62;96637.29;110572;1275;22264;-78
2024/01/24 08:22:40;;;;;;;48.30;23.90;;;;;;;-2.77;82.08;96628.14;110609;1274;22323;-78
2024/01/24 08:25:08;;;;;;;48.90;25.80;;;;;;;-2.71;81.80;96622.19;110527;1274;22163;-78
2024/01/24 08:27:36;;;;;;;56.00;25.60;;;;;;;-2.80;81.66;96623.52;110572;1274;22104;-78
2024/01/24 08:30:05;;;;;;;50.90;24.10;;;;;;;-2.85;82.31;96620.66;110493;1272;22135;-78
2024/01/24 08:32:34;;;;;;;60.30;30.30;;;;;;;-2.92;82.88;96618.61;110577;1274;22146;-78
2024/01/24 08:35:03;;;;;;;70.20;36.00;;;;;;;-2.79;83.35;96614.42;110631;1274;22186;-79
2024/01/24 08:37:32;;;;;;;60.30;29.70;;;;;;;-2.63;83.49;96613.27;110601;1274;22143;-79
2024/01/24 08:40:00;;;;;;;65.10;33.50;;;;;;;-2.46;83.19;96611.68;110533;1274;22131;-79
2024/01/24 08:42:29;;;;;;;54.50;27.80;;;;;;;-2.38;82.81;96606.04;110561;1274;22192;-79
2024/01/24 08:44:57;;;;;;;57.40;28.20;;;;;;;-2.27;82.52;96599.14;110593;1274;22208;-79
2024/01/24 08:47:25;;;;;;;66.70;31.50;;;;;;;-2.21;81.71;96591.69;110551;1274;22855;-79
2024/01/24 08:49:56;;;;;;;60.70;31.20;;;;;;;-2.13;81.30;96585.84;110547;1274;22272;-79
2024/01/24 08:52:25;;;;;;;70.60;34.80;;;;;;;-2.12;80.27;96579.66;110545;1274;22151;-79
2024/01/24 08:54:53;;;;;;;62.80;32.20;;;;;;;-1.98;80.26;96573.95;110563;1274;22148;-79
2024/01/24 08:57:22;;;;;;;59.60;28.60;;;;;;;-1.89;80.17;96570.02;110571;1275;22308;-79
2024/01/24 08:59:52;;;;;;;61.70;33.50;;;;;;;-1.84;79.96;96565.79;110537;1274;22893;-79
2024/01/24 09:02:20;;;;;;;67.00;30.90;;;;;;;-1.79;79.84;96561.34;110529;1274;22173;-79
2024/01/24 09:04:51;;;;;;;60.20;28.70;;;;;;;-1.83;80.21;96551.51;110592;1274;22470;-79
2024/01/24 09:07:20;;;;;;;58.00;28.90;;;;;;;-1.95;80.37;96542.16;110530;1275;22851;-79
2024/01/24 09:09:50;;;;;;;70.90;32.60;;;;;;;-2.04;81.01;96544.70;110575;1274;22892;-79
2024/01/24 09:12:18;;;;;;;58.10;27.80;;;;;;;-2.06;81.15;96530.27;110566;1274;22107;-79
2024/01/24 09:14:47;;;;;;;59.00;28.70;;;;;;;-2.11;81.38;96522.13;110583;1274;22183;-79
2024/01/24 09:17:17;;;;;;;61.60;30.10;;;;;;;-2.12;81.32;96523.98;110585;1275;22735;-79
2024/01/24 09:19:47;;;;;;;58.20;29.00;;;;;;;-2.02;81.72;96523.09;110554;1274;22235;-79
2024/01/24 09:22:17;;;;;;;61.70;29.30;;;;;;;-1.92;81.19;96521.45;110628;1274;22177;-79
2024/01/24 09:24:45;;;;;;;65.10;30.10;;;;;;;-1.86;80.86;96506.89;110630;1274;22100;-79
2024/01/24 09:27:17;;;;;;;58.10;28.30;;;;;;;-1.72;80.92;96504.20;110556;1274;22122;-80
2024/01/24 09:29:45;;;;;;;53.00;26.60;;;;;;;-1.66;80.43;96497.23;110617;1274;22134;-79
2024/01/24 09:32:13;;;;;;;48.70;24.00;;;;;;;-1.63;80.32;96485.45;110571;1274;22144;-79
2024/01/24 09:34:42;;;;;;;62.60;30.40;;;;;;;-1.63;79.99;96483.39;110516;1274;22131;-79
2024/01/24 09:37:11;;;;;;;59.10;28.50;;;;;;;-1.61;80.01;96469.29;110572;1275;22914;-79
2024/01/24 09:39:40;;;;;;;43.90;22.60;;;;;;;-1.43;80.08;96460.77;110593;1274;22783;-79
2024/01/24 09:42:19;;;;;;;48.40;23.80;;;;;;;-1.24;80.35;96452.17;110598;1274;22293;-79
2024/01/24 09:44:48;;;;;;;82.90;36.80;;;;;;;-1.05;79.28;96448.30;110596;1275;22135;-80
2024/01/24 09:47:19;;;;;;;49.40;25.50;;;;;;;-0.93;78.42;96439.61;110604;1275;22480;-79
2024/01/24 09:49:49;;;;;;;47.50;24.70;;;;;;;-0.81;77.99;96437.83;110551;1274;22928;-79
2024/01/24 09:52:23;;;;;;;47.50;25.00;;;;;;;-0.76;77.00;96431.44;110609;1275;22977;-79
2024/01/24 09:55:01;;;;;;;46.80;23.90;;;;;;;-0.69;77.05;96427.77;110554;1274;22124;-79
2024/01/24 09:57:29;;;;;;;44.90;21.30;;;;;;;-0.54;76.93;96422.10;110595;1274;22367;-80
2024/01/24 09:59:57;;;;;;;51.50;26.30;;;;;;;-0.44;76.10;96417.27;110568;1274;22186;-79
2024/01/24 10:02:26;;;;;;;54.30;30.00;;;;;;;-0.32;75.88;96416.50;110605;1275;23048;-79
2024/01/24 10:04:54;;;;;;;50.20;24.20;;;;;;;-0.10;75.75;96412.48;110524;1274;22896;-79
2024/01/24 10:07:23;;;;;;;44.80;24.20;;;;;;;0.19;75.73;96404.14;110559;1274;23058;-79
2024/01/24 10:10:06;;;;;;;46.80;24.30;;;;;;;0.24;74.03;96401.52;110564;1274;22065;-79
2024/01/24 10:12:35;;;;;;;47.90;25.90;;;;;;;0.17;74.12;96399.92;110598;1274;22137;-80
2024/01/24 10:15:04;;;;;;;40.30;20.70;;;;;;;0.19;74.47;96399.10;110570;1271;22163;-79
2024/01/24 10:17:32;;;;;;;47.20;24.10;;;;;;;0.21;74.43;96407.67;110571;1272;22270;-79
2024/01/24 10:20:01;;;;;;;42.30;21.70;;;;;;;0.32;74.95;96390.02;110580;1274;22253;-79
2024/01/24 10:22:31;;;;;;;40.20;21.60;;;;;;;0.46;75.05;96380.48;110529;1274;22212;-79
2024/01/24 10:24:59;;;;;;;39.70;19.60;;;;;;;0.52;74.53;96375.81;110556;1274;22805;-79
2024/01/24 10:27:28;;;;;;;37.20;19.30;;;;;;;0.51;74.39;96367.98;110564;1274;22201;-79
2024/01/24 10:29:59;;;;;;;34.80;19.50;;;;;;;0.51;74.40;96359.14;110529;1274;22954;-79
2024/01/24 10:32:28;;;;;;;41.80;21.30;;;;;;;0.48;73.95;96350.38;110619;1274;22102;-79
2024/01/24 10:34:58;;;;;;;44.60;24.50;;;;;;;0.47;74.40;96352.28;110569;1275;22827;-79
2024/01/24 10:37:26;;;;;;;40.50;21.40;;;;;;;0.30;73.99;96352.60;110516;1274;22139;-79
2024/01/24 10:39:56;;;;;;;45.50;22.30;;;;;;;0.20;74.22;96352.59;110570;1274;22117;-78
2024/01/24 10:42:30;;;;;;;39.90;20.00;;;;;;;0.14;75.05;96351.88;110454;1275;22301;-78
2024/01/24 10:45:03;;;;;;;40.70;20.00;;;;;;;0.07;75.36;96340.07;110560;1275;22316;-79
2024/01/24 10:47:32;;;;;;;41.50;21.00;;;;;;;0.03;75.80;96327.30;110609;1275;22866;-79
2024/01/24 10:50:05;;;;;;;54.30;26.20;;;;;;;0.03;76.16;96331.45;110626;1275;22397;-79
2024/01/24 10:52:35;;;;;;;40.70;20.90;;;;;;;0.14;76.36;96329.91;110597;1275;22227;-78
2024/01/24 10:55:08;;;;;;;40.50;19.60;;;;;;;0.20;76.08;96329.41;110308;1274;349351;-78
2024/01/24 10:57:41;;;;;;;41.50;19.90;;;;;;;0.23;76.05;96328.48;110547;1274;22113;-79
2024/01/24 11:00:11;;;;;;;37.90;18.50;;;;;;;0.27;76.09;96325.14;110610;1274;22141;-78
2024/01/24 11:02:42;;;;;;;38.20;19.00;;;;;;;0.28;75.82;96323.95;110557;1274;22115;-79
2024/01/24 11:05:21;;;;;;;38.50;19.40;;;;;;;0.29;76.01;96320.20;110576;1275;23067;-79
2024/01/24 11:08:10;;;;;;;34.20;18.50;;;;;;;0.23;75.98;96323.81;110576;1275;22171;-79
2024/01/24 11:10:42;;;;;;;44.40;21.40;;;;;;;0.20;76.07;96318.86;110581;1274;22208;-78
2024/01/24 11:13:17;;;;;;;46.20;23.40;;;;;;;0.14;76.22;96315.56;110588;1275;22112;-78
2024/01/24 11:15:46;;;;;;;45.00;22.30;;;;;;;0.09;76.28;96317.45;110539;1274;22176;-78
2024/01/24 11:18:17;;;;;;;48.50;24.60;;;;;;;-0.01;76.56;96320.94;110583;1274;22131;-78